Martell, California
Current Conditions -  °F | °C
As of 12:35 AM on Friday 24 Oct 2014 (Local Time) from KPVF Reporting Station
Scattered Clouds Scattered Clouds  
Wind Chill: 57°   Ceiling: Unl
Heat Index: 57°   Visibility: 10mi
Dew Point: 39°   Wind: 0mph
Humidity: 51%   Direction: NA
Pressure: 30.06"   Gusts: NA
Location:  38.37°N, 120.79°W
Report Text: KPVF 240735Z AUTO 00000KT 10SM SCT042 14/04 A3006 RMK AO1
Loading
Personal Weather Stations






























Interactive Weather Map
Tropical Storm Tracking
New forecast layout! Learn more

10-Day Weather Forecast

Advertisements
Track Severe Weather on mobile